createdAt,value
2019-01-20T00:02:36.055Z,20.77
2019-01-20T00:06:40.611Z,19.15
2019-01-20T00:10:45.130Z,22.55
2019-01-20T00:14:49.679Z,24.00
2019-01-20T00:18:54.214Z,23.85
2019-01-20T00:22:58.752Z,23.30
2019-01-20T00:27:03.291Z,19.48
2019-01-20T00:31:07.796Z,22.43
2019-01-20T00:35:12.343Z,23.30
2019-01-20T00:40:02.435Z,21.15
2019-01-20T02:24:48.399Z,16.00
2019-01-20T03:22:13.269Z,19.80
2019-01-20T03:35:08.708Z,21.80
2019-01-20T04:53:29.347Z,27.30
2019-01-20T05:00:29.863Z,26.03
2019-01-20T05:04:34.401Z,26.67
2019-01-20T05:08:38.942Z,28.53
2019-01-20T05:12:43.471Z,30.25
2019-01-20T05:16:47.968Z,28.47
2019-01-20T05:20:52.543Z,31.27
2019-01-20T05:31:24.975Z,29.25
2019-01-20T05:35:29.545Z,28.10
2019-01-20T05:43:12.488Z,34.78
2019-01-20T05:47:17.013Z,30.97
2019-01-20T05:57:08.768Z,29.23
2019-01-20T06:43:08.391Z,24.87
2019-01-20T06:47:12.915Z,19.40
2019-01-20T06:51:17.443Z,16.57
2019-01-20T06:58:50.038Z,20.13
2019-01-20T07:04:35.215Z,28.07
2019-01-20T07:08:39.739Z,21.67
2019-01-20T07:12:44.224Z,22.77
2019-01-20T07:16:48.761Z,24.17
2019-01-20T07:20:53.308Z,27.33
2019-01-20T07:24:57.831Z,23.83
2019-01-20T07:29:02.408Z,25.73
2019-01-20T07:33:07.467Z,24.87
2019-01-20T07:37:11.990Z,26.53
2019-01-20T07:41:16.559Z,24.40
2019-01-20T07:45:21.126Z,24.67
2019-01-20T07:49:25.648Z,29.40
2019-01-20T07:53:30.266Z,27.33
2019-01-20T07:57:34.804Z,26.53
2019-01-20T08:01:39.344Z,29.27
2019-01-20T08:05:43.887Z,28.27
2019-01-20T08:10:53.714Z,31.37
2019-01-20T08:14:58.596Z,27.97
2019-01-20T08:19:03.103Z,26.07
2019-01-20T08:23:07.656Z,28.43
2019-01-20T08:28:23.211Z,25.37
2019-01-20T08:32:27.748Z,28.53
2019-01-20T08:38:14.918Z,28.53
2019-01-20T08:42:19.441Z,29.07
2019-01-20T08:46:38.828Z,36.67
2019-01-20T08:50:44.412Z,28.67
2019-01-20T08:54:49.072Z,38.00
2019-01-20T08:58:53.603Z,35.23
2019-01-20T09:08:49.018Z,38.27
2019-01-20T09:12:53.953Z,31.27
2019-01-20T09:16:58.438Z,29.43
2019-01-20T09:21:02.997Z,30.97
2019-01-20T09:25:08.539Z,32.10
2019-01-20T09:29:13.077Z,29.57
2019-01-20T09:33:24.495Z,34.47
2019-01-20T09:37:23.803Z,35.10
2019-01-20T09:41:28.384Z,32.77
2019-01-20T09:45:33.852Z,35.03
2019-01-20T09:49:38.358Z,33.23
2019-01-20T09:53:42.936Z,30.77
2019-01-20T09:57:47.486Z,36.43
2019-01-20T10:01:52.010Z,32.43
2019-01-20T10:05:56.515Z,32.13
2019-01-20T10:16:01.736Z,37.78
2019-01-20T10:20:09.944Z,36.63
2019-01-20T10:28:00.595Z,35.47
2019-01-20T10:32:47.917Z,37.37
2019-01-20T10:36:49.907Z,33.67
2019-01-20T10:40:54.474Z,35.10
2019-01-20T10:47:02.532Z,40.97
2019-01-20T10:51:07.088Z,37.30
2019-01-20T10:58:54.883Z,45.30
2019-01-20T11:02:59.385Z,46.73
2019-01-20T11:08:25.251Z,38.40
2019-01-20T11:12:29.752Z,41.53
2019-01-20T11:21:43.039Z,33.37
2019-01-20T11:37:48.808Z,42.77
2019-01-20T11:41:53.388Z,45.27
2019-01-20T11:50:47.866Z,41.43
2019-01-20T11:54:52.404Z,40.13
2019-01-20T11:58:56.904Z,37.10
2019-01-20T12:07:27.483Z,38.40
2019-01-20T12:11:32.014Z,45.93
2019-01-20T12:19:17.019Z,47.50
2019-01-20T12:23:23.229Z,49.83
2019-01-20T12:27:27.776Z,43.10
2019-01-20T12:31:32.311Z,42.53
2019-01-20T12:35:36.867Z,41.60
2019-01-20T12:39:41.399Z,41.67
2019-01-20T12:43:45.967Z,45.53
2019-01-20T12:47:50.568Z,53.10
2019-01-20T12:51:55.108Z,45.73
2019-01-20T12:55:59.635Z,43.83
2019-01-20T13:03:58.007Z,51.63
2019-01-20T13:08:02.547Z,46.90
2019-01-20T13:12:07.087Z,43.07
2019-01-20T13:16:11.631Z,40.30
2019-01-20T13:20:21.223Z,44.00
2019-01-20T13:26:53.626Z,39.07
2019-01-20T13:32:47.748Z,43.17
2019-01-20T13:36:52.284Z,44.63
2019-01-20T13:48:20.667Z,62.47
2019-01-20T13:52:25.225Z,59.47
2019-01-20T14:01:41.350Z,50.33
2019-01-20T14:05:45.847Z,52.83
2019-01-20T14:09:50.407Z,47.33
2019-01-20T14:13:54.943Z,61.43
2019-01-20T14:17:59.471Z,56.23
2019-01-20T14:26:22.394Z,56.20
2019-01-20T14:35:07.068Z,54.43
2019-01-20T14:39:13.403Z,50.40
2019-01-20T14:43:17.935Z,49.57
2019-01-20T14:48:20.785Z,49.57
2019-01-20T14:53:17.827Z,49.97
2019-01-20T14:57:22.362Z,53.20
2019-01-20T15:11:07.011Z,44.80
2019-01-20T15:15:15.057Z,45.73
2019-01-20T15:23:05.322Z,53.17
2019-01-20T15:27:57.587Z,49.23
2019-01-20T15:44:36.979Z,51.10
2019-01-20T15:53:30.799Z,48.33
2019-01-20T15:57:35.333Z,48.97
2019-01-20T16:01:40.221Z,47.70
2019-01-20T16:05:44.739Z,45.07
2019-01-20T16:09:50.688Z,52.53
2019-01-20T16:15:24.294Z,57.43
2019-01-20T16:19:24.022Z,52.50
2019-01-20T16:23:28.544Z,54.80
2019-01-20T16:28:32.195Z,52.30
2019-01-20T16:37:28.642Z,53.80
2019-01-20T16:41:33.224Z,54.37
2019-01-20T16:49:21.482Z,60.77
2019-01-20T17:03:49.817Z,50.13
2019-01-20T17:09:44.822Z,59.73
2019-01-20T17:13:49.312Z,62.60
2019-01-20T17:18:58.008Z,65.70
2019-01-20T17:23:02.555Z,57.27
2019-01-20T17:31:32.858Z,71.45
2019-01-20T17:35:37.520Z,76.53
2019-01-20T17:39:42.049Z,71.53
2019-01-20T17:43:46.583Z,57.23
2019-01-20T17:52:47.277Z,56.23
2019-01-20T17:57:10.781Z,55.97
2019-01-20T18:03:05.490Z,48.50
2019-01-20T18:10:38.471Z,56.00
2019-01-20T18:14:42.988Z,54.17
2019-01-20T18:19:28.227Z,53.00
2019-01-20T18:26:33.019Z,47.80
2019-01-20T18:39:00.643Z,43.57
2019-01-20T18:46:15.834Z,54.00
2019-01-20T18:54:18.162Z,52.70
2019-01-20T18:59:10.491Z,48.60
2019-01-20T19:03:53.904Z,61.40
2019-01-20T19:16:12.331Z,53.53
2019-01-20T19:23:00.263Z,54.97
2019-01-20T19:29:08.291Z,55.80
2019-01-20T19:42:07.099Z,58.27
2019-01-20T19:50:12.864Z,59.07
2019-01-20T19:54:17.402Z,63.43
2019-01-20T19:58:53.343Z,59.57
2019-01-20T20:21:06.864Z,42.70
2019-01-20T20:42:59.797Z,55.47
2019-01-20T20:50:00.239Z,56.73
2019-01-20T20:58:57.904Z,65.92
2019-01-20T21:03:04.284Z,63.97
2019-01-20T21:07:09.948Z,61.42
2019-01-20T21:21:19.291Z,50.30
2019-01-20T21:25:23.790Z,44.40
2019-01-20T21:29:28.314Z,51.00
2019-01-20T21:34:59.044Z,54.10
2019-01-20T21:41:28.639Z,59.13
2019-01-20T21:45:33.176Z,53.23
2019-01-20T21:49:37.698Z,49.93
2019-01-20T22:00:33.839Z,43.87
2019-01-20T22:04:38.377Z,52.97
2019-01-20T22:09:15.770Z,47.70
2019-01-20T22:13:20.271Z,49.53
2019-01-20T22:27:42.891Z,45.70
2019-01-20T22:37:02.732Z,48.53
2019-01-20T22:41:07.304Z,54.20
2019-01-20T22:45:14.251Z,51.90
2019-01-20T22:49:18.727Z,41.13
2019-01-20T22:53:23.353Z,52.87
2019-01-20T22:57:27.899Z,49.97
2019-01-20T23:01:50.763Z,52.30
2019-01-20T23:05:56.783Z,48.77
2019-01-20T23:13:35.614Z,55.67
2019-01-20T23:18:34.954Z,56.93
2019-01-20T23:28:07.038Z,58.80
2019-01-20T23:32:11.622Z,51.73
2019-01-20T23:40:18.972Z,41.90
2019-01-20T23:48:20.831Z,49.20
2019-01-20T23:52:25.472Z,47.13
2019-01-20T23:58:34.983Z,55.50
